createdAt,value
2022-08-22T00:00:13.460Z,96.10
2022-08-22T00:05:29.682Z,96.30
2022-08-22T00:10:42.662Z,96.60
2022-08-22T00:15:53.709Z,96.10
2022-08-22T00:21:06.635Z,96.30
2022-08-22T00:26:17.455Z,96.50
2022-08-22T00:31:27.826Z,96.60
2022-08-22T00:36:39.988Z,97.20
2022-08-22T00:42:31.708Z,97.10
2022-08-22T00:48:00.441Z,97.50
2022-08-22T00:53:24.141Z,97.50
2022-08-22T00:58:57.507Z,98.10
2022-08-22T01:04:33.177Z,98.80
2022-08-22T01:10:19.220Z,98.40
2022-08-22T01:15:25.553Z,98.20
2022-08-22T01:21:11.755Z,98.40
2022-08-22T01:27:00.556Z,98.20
2022-08-22T01:32:43.056Z,97.90
2022-08-22T01:38:30.115Z,98.40
2022-08-22T01:44:00.562Z,98.80
2022-08-22T01:49:12.299Z,99.00
2022-08-22T01:54:28.340Z,98.60
2022-08-22T01:59:42.588Z,98.50
2022-08-22T02:05:01.768Z,98.80
2022-08-22T02:10:22.864Z,99.00
2022-08-22T02:15:48.610Z,98.90
2022-08-22T02:21:04.704Z,99.20
2022-08-22T02:26:17.167Z,99.20
2022-08-22T02:31:28.077Z,99.10
2022-08-22T02:36:44.872Z,99.20
2022-08-22T02:41:55.578Z,98.90
2022-08-22T02:47:08.341Z,99.00
2022-08-22T02:52:18.689Z,98.90
2022-08-22T02:57:33.864Z,99.00
2022-08-22T03:03:00.304Z,99.20
2022-08-22T03:08:09.397Z,99.40
2022-08-22T03:13:30.190Z,99.30
2022-08-22T03:18:45.781Z,99.00
2022-08-22T03:23:54.167Z,98.80
2022-08-22T03:29:10.903Z,99.30
2022-08-22T03:34:24.412Z,99.30
2022-08-22T03:39:48.721Z,99.60
2022-08-22T03:45:35.062Z,99.90
2022-08-22T03:51:01.839Z,99.80
2022-08-22T03:56:38.337Z,99.90
2022-08-22T04:02:24.780Z,99.90
2022-08-22T04:08:12.967Z,99.90
2022-08-22T04:13:32.715Z,99.90
2022-08-22T04:19:16.513Z,99.90
2022-08-22T04:24:45.125Z,99.90
2022-08-22T04:29:59.988Z,99.90
2022-08-22T04:35:10.164Z,99.90
2022-08-22T04:40:23.163Z,99.90
2022-08-22T04:45:32.209Z,99.90
2022-08-22T04:50:52.077Z,99.90
2022-08-22T04:56:07.826Z,99.90
2022-08-22T05:01:21.463Z,99.90
2022-08-22T05:06:29.015Z,99.90
2022-08-22T05:11:34.410Z,99.90
2022-08-22T05:16:41.877Z,99.90
2022-08-22T05:21:50.934Z,99.90
2022-08-22T05:26:56.439Z,99.90
2022-08-22T05:32:02.759Z,99.90
2022-08-22T05:37:12.211Z,99.90
2022-08-22T05:42:19.625Z,99.90
2022-08-22T05:47:25.321Z,99.90
2022-08-22T05:52:45.033Z,99.90
2022-08-22T05:57:53.358Z,99.90
2022-08-22T06:03:06.402Z,99.90
2022-08-22T06:08:18.762Z,99.90
2022-08-22T06:13:26.788Z,99.90
2022-08-22T06:18:33.799Z,99.90
2022-08-22T06:23:41.882Z,99.90
2022-08-22T06:28:55.321Z,99.90
2022-08-22T06:34:04.482Z,99.90
2022-08-22T06:39:18.668Z,99.90
2022-08-22T06:44:25.556Z,99.90
2022-08-22T06:49:29.579Z,99.80
2022-08-22T06:54:40.934Z,99.90
2022-08-22T06:59:44.787Z,99.90
2022-08-22T07:04:50.016Z,99.90
2022-08-22T07:09:57.551Z,99.90
2022-08-22T07:15:09.816Z,99.90
2022-08-22T07:20:25.644Z,99.90
2022-08-22T07:25:32.368Z,99.80
2022-08-22T07:30:46.957Z,99.70
2022-08-22T07:35:56.921Z,99.50
2022-08-22T07:41:10.285Z,99.30
2022-08-22T07:46:21.316Z,98.80
2022-08-22T07:51:29.320Z,98.80
2022-08-22T07:56:38.566Z,98.60
2022-08-22T08:01:47.064Z,98.40
2022-08-22T08:06:52.733Z,98.10
2022-08-22T08:11:56.826Z,98.10
2022-08-22T08:17:06.013Z,97.60
2022-08-22T08:22:12.938Z,98.40
2022-08-22T08:27:37.427Z,96.90
2022-08-22T08:32:40.959Z,96.90
2022-08-22T08:37:46.020Z,96.40
2022-08-22T08:43:24.929Z,96.50
2022-08-22T08:48:56.820Z,96.30
2022-08-22T08:54:24.142Z,96.00
2022-08-22T08:59:44.435Z,96.60
2022-08-22T09:05:20.412Z,97.20
2022-08-22T09:10:39.736Z,97.40
2022-08-22T09:16:05.071Z,97.40
2022-08-22T09:21:31.351Z,97.20
2022-08-22T09:26:48.210Z,96.80
2022-08-22T09:32:04.132Z,96.70
2022-08-22T09:37:17.731Z,96.30
2022-08-22T09:42:25.686Z,95.60
2022-08-22T09:47:35.661Z,95.40
2022-08-22T09:53:04.932Z,95.10
2022-08-22T09:58:17.422Z,95.20
2022-08-22T10:03:32.668Z,95.30
2022-08-22T10:08:52.659Z,95.50
2022-08-22T10:14:02.280Z,95.50
2022-08-22T10:19:17.058Z,95.80
2022-08-22T10:24:32.318Z,96.00
2022-08-22T10:30:05.372Z,96.00
2022-08-22T10:35:21.580Z,96.40
2022-08-22T10:40:33.366Z,96.40
2022-08-22T10:45:41.709Z,94.90
2022-08-22T10:50:58.141Z,94.70
2022-08-22T10:56:16.803Z,93.50
2022-08-22T11:01:37.980Z,93.70
2022-08-22T11:06:54.603Z,93.30
2022-08-22T11:12:04.398Z,93.20
2022-08-22T11:17:29.911Z,94.00
2022-08-22T11:22:58.175Z,93.60
2022-08-22T11:29:07.793Z,93.50
2022-08-22T11:34:28.888Z,93.20
2022-08-22T11:39:38.962Z,92.50
2022-08-22T11:44:51.191Z,92.30
2022-08-22T11:50:00.844Z,91.10
2022-08-22T11:55:21.458Z,90.30
2022-08-22T12:00:33.820Z,90.10
2022-08-22T12:05:44.544Z,90.10
2022-08-22T12:10:55.535Z,90.30
2022-08-22T12:16:14.969Z,90.10
2022-08-22T12:22:01.773Z,90.20
2022-08-22T12:27:48.070Z,90.50
2022-08-22T12:33:27.970Z,90.50
2022-08-22T12:38:47.522Z,90.90
2022-08-22T12:44:03.579Z,91.10
2022-08-22T12:49:52.305Z,91.20
2022-08-22T12:55:19.480Z,91.00
2022-08-22T13:00:32.088Z,92.00
2022-08-22T13:05:40.936Z,92.60
2022-08-22T13:10:51.870Z,92.50
2022-08-22T13:16:04.661Z,91.80
2022-08-22T13:21:15.038Z,91.10
2022-08-22T13:26:33.195Z,91.60
2022-08-22T13:31:43.733Z,91.90
2022-08-22T13:36:55.553Z,91.60
2022-08-22T13:42:40.794Z,91.80
2022-08-22T13:48:13.943Z,92.30
2022-08-22T13:53:36.509Z,92.10
2022-08-22T13:58:53.639Z,92.10
2022-08-22T14:04:28.977Z,92.30
2022-08-22T14:09:57.324Z,92.60
2022-08-22T14:15:02.197Z,92.50
2022-08-22T14:25:50.335Z,92.20
2022-08-22T14:31:00.751Z,92.60
2022-08-22T14:36:37.416Z,92.60
2022-08-22T14:41:56.593Z,92.60
2022-08-22T14:47:32.306Z,92.40
2022-08-22T14:52:46.177Z,92.30
2022-08-22T14:58:06.039Z,92.20
2022-08-22T15:03:17.412Z,92.60
2022-08-22T15:08:32.993Z,92.60
2022-08-22T15:13:44.389Z,92.80
2022-08-22T15:18:59.791Z,92.90
2022-08-22T15:30:48.321Z,93.60
2022-08-22T15:36:33.110Z,93.30
2022-08-22T15:42:19.963Z,93.70
2022-08-22T15:47:44.547Z,94.30
2022-08-22T15:53:08.634Z,94.30
2022-08-22T15:58:31.122Z,94.30
2022-08-22T16:03:38.332Z,94.60
2022-08-22T16:09:06.256Z,94.50
2022-08-22T16:14:55.157Z,94.40
2022-08-22T16:20:47.993Z,94.10
2022-08-22T16:32:32.254Z,94.30
2022-08-22T16:37:50.785Z,94.40
2022-08-22T16:43:32.555Z,94.10
2022-08-22T16:48:59.106Z,94.70
2022-08-22T16:54:44.276Z,94.70
2022-08-22T17:00:23.040Z,95.00
2022-08-22T17:05:54.995Z,95.10
2022-08-22T17:11:48.818Z,95.30
2022-08-22T17:23:27.347Z,95.30
2022-08-22T17:28:55.998Z,95.10
2022-08-22T17:34:47.557Z,95.10
2022-08-22T17:46:45.801Z,94.70
2022-08-22T17:52:44.302Z,94.40
2022-08-22T17:58:31.612Z,94.80
2022-08-22T18:03:42.939Z,94.80
2022-08-22T18:14:35.495Z,92.00
2022-08-22T18:20:04.503Z,91.40
2022-08-22T18:25:38.082Z,92.70
2022-08-22T18:31:10.636Z,93.30
2022-08-22T18:36:17.256Z,93.60
2022-08-22T18:41:32.181Z,94.00
2022-08-22T18:46:51.655Z,94.30
2022-08-22T18:52:16.077Z,94.80
2022-08-22T18:57:42.952Z,95.00
2022-08-22T19:03:04.853Z,95.70
2022-08-22T19:08:53.503Z,95.90
2022-08-22T19:14:22.354Z,96.30
2022-08-22T19:19:53.460Z,96.70
2022-08-22T19:25:14.616Z,96.80
2022-08-22T19:30:42.952Z,96.90
2022-08-22T19:36:02.216Z,96.30
2022-08-22T19:41:04.978Z,96.60
2022-08-22T19:46:12.260Z,96.70
2022-08-22T19:51:26.123Z,96.60
2022-08-22T19:56:40.468Z,96.50
2022-08-22T20:02:03.345Z,96.40
2022-08-22T20:07:17.642Z,96.00
2022-08-22T20:12:31.036Z,95.90
2022-08-22T20:18:11.616Z,96.30
2022-08-22T20:23:15.731Z,95.90
2022-08-22T20:28:32.340Z,96.10
2022-08-22T20:33:40.225Z,96.20
2022-08-22T20:39:01.828Z,96.20
2022-08-22T20:44:13.405Z,96.20
2022-08-22T20:49:20.858Z,96.40
2022-08-22T20:54:25.475Z,96.40
2022-08-22T20:59:35.816Z,96.50
2022-08-22T21:04:45.562Z,96.60
2022-08-22T21:10:16.687Z,96.70
2022-08-22T21:15:31.818Z,96.60
2022-08-22T21:20:38.700Z,97.00
2022-08-22T21:25:55.070Z,96.50
2022-08-22T21:30:59.507Z,96.60
2022-08-22T21:36:03.139Z,96.40
2022-08-22T21:41:05.533Z,96.20
2022-08-22T21:46:10.317Z,96.30
2022-08-22T21:51:31.897Z,96.30
2022-08-22T21:56:33.997Z,96.30
2022-08-22T22:01:36.113Z,96.30
2022-08-22T22:06:49.491Z,96.40
2022-08-22T22:11:51.599Z,96.30
2022-08-22T22:16:56.798Z,96.20
2022-08-22T22:22:00.252Z,96.30
2022-08-22T22:27:05.667Z,96.30
2022-08-22T22:32:09.170Z,96.30
2022-08-22T22:37:15.884Z,96.50
2022-08-22T22:42:20.277Z,96.60
2022-08-22T22:47:31.990Z,96.80
2022-08-22T22:52:40.900Z,96.80
2022-08-22T22:57:43.173Z,96.80
2022-08-22T23:02:49.453Z,96.80
2022-08-22T23:07:55.929Z,96.80
2022-08-22T23:13:05.969Z,96.70
2022-08-22T23:18:09.761Z,96.80
2022-08-22T23:23:13.214Z,97.10
2022-08-22T23:28:19.981Z,96.70
2022-08-22T23:33:22.113Z,96.90
2022-08-22T23:38:25.607Z,98.50
2022-08-22T23:43:27.714Z,99.20
2022-08-22T23:48:30.055Z,99.90
2022-08-22T23:53:34.622Z,99.90
2022-08-22T23:58:36.769Z,99.90
